Terminal Aerodrome Forecast
Issued by NWS

Home | Current Version | Previous Version | Text Only | Print | Product List | Glossary On
Versions: 1 2 3 4 5 6 7 8 9 10 11 12 13 14 15 16
000
FTUS45 KREV 192320
TAFCXP
TAF
KCXP 192320Z 2000/2024 20011G17KT P6SM SCT040
     FM200900 17011G20KT P6SM VCSH SCT020 OVC040
     FM201100 17010KT 2SM -SN SCT010 BKN020
     FM201500 11007KT 1SM -SN BR BKN010 OVC018
     FM202000 19010G20KT 5SM -SHSN SCT012 BKN025=

USA.gov is the U.S. government's official web portal to all federal, state and local government web resources and services.